Aérodrome :
LOGIN :

S'inscrire | Disclaimer

   EN    FR    IT 

 










Légende :    VFR   VFR Marginal   IFR   IFR Intensif   IFR Très Intensif
Visi : 
Plafond : 
>= 8 km
>= 3000ft
5 à 8 km
1000 à 3000 ft
1500m à 5 km
500 à 1000 ft
800 à 1500m
200 à 500 ft
< 800m
< 200 ft
Symboles :   Orages  Brouillard  Fortes neiges  Fortes précipitations  Vent > 20 kt
SIGMETs :   Divers  Orages  Givrage  Turbulence  Onde Orograph.  Cendres Volcan.







- Altitude de l'aérodrome : 228 ft
- Code IATA : OPO


LPPR - Porto Fr. Sa Carneiro

DERNIER METAR :
  • 221400Z 33016KT 300V360 9999 FEW008 BKN015 12/11 Q1020

METARs EXPIRÉS :
  • 221330Z 28010G20KT 210V310 9999 BKN002 BKN012 12/12 Q1020
  • 221300Z 28008KT 230V310 2000 -RA BR BKN003 12/12 Q1020
  • 221230Z 29007KT 260V320 6000 -RADZ BKN004 BKN015 12/11 Q1021
  • 221200Z 28007KT 240V310 8000 -RADZ FEW008 BKN014 12/11 Q1021
  • 221130Z 29004KT 250V320 9999 FEW007 BKN014 11/11 Q1022

TAF AMD TAF LPPR
Valide du 22 à 13h jusqu'au 23 à 12h UTC


221305Z 2213/2312 28008KT 2000 RADZ BR BKN002
BECMG 2213/2215 34013KT 9999 NSW SCT015 BKN030
TEMPO 2215/2312 34015G25KT 6000 -RA BKN015
Pas de NOTAMs connus pour ce terrain.



MET'MAP, la Météo Aéronautique d'un coup d'oeil ! - Copyright ORBIFLY Décembre 2007 - Disclaimer

ORBIFLY MET'MAP TEAM :

Programmation & Développement : Alexandra Zaïnal
Conception & Développement : Baudouin d'Aumeries
Co-Programmation & Développement : Marc-Olivier Méhu
Soutien technique & logistique : Manuel Goepfert

Contact : metmap@orbifly.com




SOURCES & CREDITS :

   NOAA